sensor_id;sensor_type;location;lat;lon;timestamp;pressure;altitude;pressure_sealevel;temperature;humidity
77235;BME280;66253;50.526;14.974;2023-03-23T00:02:27;98534.64;;;6.24;77.14
77235;BME280;66253;50.526;14.974;2023-03-23T00:04:54;98532.74;;;6.24;77.06
77235;BME280;66253;50.526;14.974;2023-03-23T00:10:24;98536.80;;;6.28;77.25
77235;BME280;66253;50.526;14.974;2023-03-23T00:12:51;98532.44;;;6.27;77.32
77235;BME280;66253;50.526;14.974;2023-03-23T00:15:17;98525.27;;;6.28;76.99
77235;BME280;66253;50.526;14.974;2023-03-23T00:17:42;98526.36;;;6.27;77.47
77235;BME280;66253;50.526;14.974;2023-03-23T00:20:11;98525.95;;;6.28;77.44
77235;BME280;66253;50.526;14.974;2023-03-23T00:22:38;98523.40;;;6.28;77.81
77235;BME280;66253;50.526;14.974;2023-03-23T00:25:05;98522.41;;;6.27;77.50
77235;BME280;66253;50.526;14.974;2023-03-23T00:27:31;98524.13;;;6.27;77.89
77235;BME280;66253;50.526;14.974;2023-03-23T00:29:57;98523.49;;;6.26;77.91
77235;BME280;66253;50.526;14.974;2023-03-23T00:32:25;98521.98;;;6.26;77.65
77235;BME280;66253;50.526;14.974;2023-03-23T00:34:55;98526.11;;;6.25;77.62
77235;BME280;66253;50.526;14.974;2023-03-23T00:37:22;98527.87;;;6.24;77.81
77235;BME280;66253;50.526;14.974;2023-03-23T00:39:48;98531.80;;;6.23;77.73
77235;BME280;66253;50.526;14.974;2023-03-23T00:42:15;98529.13;;;6.22;77.85
77235;BME280;66253;50.526;14.974;2023-03-23T00:44:42;98525.81;;;6.21;78.18
77235;BME280;66253;50.526;14.974;2023-03-23T00:47:10;98529.59;;;6.20;78.13
77235;BME280;66253;50.526;14.974;2023-03-23T00:49:37;98528.80;;;6.18;78.15
77235;BME280;66253;50.526;14.974;2023-03-23T00:52:06;98529.05;;;6.17;77.76
77235;BME280;66253;50.526;14.974;2023-03-23T00:54:33;98522.58;;;6.14;77.93
77235;BME280;66253;50.526;14.974;2023-03-23T00:57:00;98527.09;;;6.12;78.31
77235;BME280;66253;50.526;14.974;2023-03-23T00:59:34;98527.19;;;6.10;78.07
77235;BME280;66253;50.526;14.974;2023-03-23T01:02:02;98521.69;;;6.08;78.45
77235;BME280;66253;50.526;14.974;2023-03-23T01:04:28;98518.77;;;6.05;78.15
77235;BME280;66253;50.526;14.974;2023-03-23T01:06:57;98512.44;;;6.03;78.20
77235;BME280;66253;50.526;14.974;2023-03-23T01:09:23;98510.91;;;6.00;78.17
77235;BME280;66253;50.526;14.974;2023-03-23T01:11:50;98508.32;;;5.97;78.46
77235;BME280;66253;50.526;14.974;2023-03-23T01:14:18;98505.42;;;5.94;78.39
77235;BME280;66253;50.526;14.974;2023-03-23T01:16:47;98500.33;;;5.90;78.28
77235;BME280;66253;50.526;14.974;2023-03-23T01:19:13;98490.20;;;5.85;78.24
77235;BME280;66253;50.526;14.974;2023-03-23T01:21:41;98492.50;;;5.80;78.21
77235;BME280;66253;50.526;14.974;2023-03-23T01:24:12;98495.08;;;5.76;77.94
77235;BME280;66253;50.526;14.974;2023-03-23T01:26:38;98501.19;;;5.72;78.14
77235;BME280;66253;50.526;14.974;2023-03-23T01:29:04;98503.71;;;5.69;77.89
77235;BME280;66253;50.526;14.974;2023-03-23T01:31:30;98506.61;;;5.64;77.69
77235;BME280;66253;50.526;14.974;2023-03-23T01:33:56;98505.88;;;5.62;77.94
77235;BME280;66253;50.526;14.974;2023-03-23T01:36:25;98510.39;;;5.60;77.91
77235;BME280;66253;50.526;14.974;2023-03-23T01:38:59;98505.86;;;5.59;77.84
77235;BME280;66253;50.526;14.974;2023-03-23T01:41:26;98501.45;;;5.59;78.32
77235;BME280;66253;50.526;14.974;2023-03-23T01:46:36;98493.93;;;5.60;78.29
77235;BME280;66253;50.526;14.974;2023-03-23T01:49:23;98493.71;;;5.61;78.43
77235;BME280;66253;50.526;14.974;2023-03-23T01:52:14;98490.45;;;5.62;78.48
77235;BME280;66253;50.526;14.974;2023-03-23T01:54:44;98492.58;;;5.64;78.36
77235;BME280;66253;50.526;14.974;2023-03-23T01:57:17;98494.86;;;5.66;78.69
77235;BME280;66253;50.526;14.974;2023-03-23T01:59:46;98494.70;;;5.70;78.74
77235;BME280;66253;50.526;14.974;2023-03-23T02:02:14;98494.18;;;5.73;79.64
77235;BME280;66253;50.526;14.974;2023-03-23T02:04:41;98482.70;;;5.76;79.17
77235;BME280;66253;50.526;14.974;2023-03-23T02:07:21;98483.09;;;5.78;79.12
77235;BME280;66253;50.526;14.974;2023-03-23T02:09:47;98485.65;;;5.81;79.50
77235;BME280;66253;50.526;14.974;2023-03-23T02:12:13;98483.67;;;5.84;79.25
77235;BME280;66253;50.526;14.974;2023-03-23T02:14:44;98484.23;;;5.86;78.98
77235;BME280;66253;50.526;14.974;2023-03-23T02:32:11;98458.02;;;6.13;80.60
77235;BME280;66253;50.526;14.974;2023-03-23T02:34:53;98454.13;;;6.20;80.57
77235;BME280;66253;50.526;14.974;2023-03-23T02:37:27;98457.93;;;6.25;80.45
77235;BME280;66253;50.526;14.974;2023-03-23T02:40:02;98461.91;;;6.30;80.18
77235;BME280;66253;50.526;14.974;2023-03-23T02:42:36;98463.20;;;6.35;80.16
77235;BME280;66253;50.526;14.974;2023-03-23T02:45:08;98461.27;;;6.40;80.31
77235;BME280;66253;50.526;14.974;2023-03-23T02:47:37;98459.34;;;6.44;80.15
77235;BME280;66253;50.526;14.974;2023-03-23T02:50:07;98452.89;;;6.47;80.08
77235;BME280;66253;50.526;14.974;2023-03-23T02:52:36;98449.14;;;6.51;80.08
77235;BME280;66253;50.526;14.974;2023-03-23T02:55:04;98451.97;;;6.55;80.22
77235;BME280;66253;50.526;14.974;2023-03-23T02:57:33;98451.65;;;6.58;80.15
77235;BME280;66253;50.526;14.974;2023-03-23T03:00:00;98444.90;;;6.61;80.20
77235;BME280;66253;50.526;14.974;2023-03-23T03:02:28;98447.14;;;6.64;80.24
77235;BME280;66253;50.526;14.974;2023-03-23T03:05:38;98440.58;;;6.66;80.26
77235;BME280;66253;50.526;14.974;2023-03-23T03:13:50;98431.84;;;6.74;80.03
77235;BME280;66253;50.526;14.974;2023-03-23T03:16:35;98427.59;;;6.77;80.02
77235;BME280;66253;50.526;14.974;2023-03-23T03:19:14;98432.38;;;6.80;79.82
77235;BME280;66253;50.526;14.974;2023-03-23T03:21:43;98432.41;;;6.82;79.58
77235;BME280;66253;50.526;14.974;2023-03-23T03:24:11;98433.14;;;6.84;79.68
77235;BME280;66253;50.526;14.974;2023-03-23T03:26:41;98430.71;;;6.86;79.55
77235;BME280;66253;50.526;14.974;2023-03-23T03:29:11;98432.94;;;6.88;79.43
77235;BME280;66253;50.526;14.974;2023-03-23T03:31:39;98436.91;;;6.90;79.32
77235;BME280;66253;50.526;14.974;2023-03-23T03:34:13;98435.46;;;6.92;79.34
77235;BME280;66253;50.526;14.974;2023-03-23T03:36:48;98431.31;;;6.93;79.24
77235;BME280;66253;50.526;14.974;2023-03-23T03:39:16;98435.46;;;6.95;79.25
77235;BME280;66253;50.526;14.974;2023-03-23T03:41:43;98439.64;;;6.96;79.37
77235;BME280;66253;50.526;14.974;2023-03-23T03:44:10;98433.09;;;6.98;79.48
77235;BME280;66253;50.526;14.974;2023-03-23T03:46:37;98428.83;;;6.98;79.35
77235;BME280;66253;50.526;14.974;2023-03-23T03:49:06;98432.96;;;7.00;79.13
77235;BME280;66253;50.526;14.974;2023-03-23T03:51:36;98433.73;;;7.02;79.03
77235;BME280;66253;50.526;14.974;2023-03-23T03:54:02;98436.06;;;7.03;79.16
77235;BME280;66253;50.526;14.974;2023-03-23T03:56:28;98438.89;;;7.04;79.00
77235;BME280;66253;50.526;14.974;2023-03-23T03:58:56;98438.67;;;7.04;79.02
77235;BME280;66253;50.526;14.974;2023-03-23T04:01:23;98437.09;;;7.06;79.10
77235;BME280;66253;50.526;14.974;2023-03-23T04:03:54;98431.81;;;7.06;78.73
77235;BME280;66253;50.526;14.974;2023-03-23T04:06:21;98433.81;;;7.06;78.74
77235;BME280;66253;50.526;14.974;2023-03-23T04:08:47;98438.67;;;7.08;78.64
77235;BME280;66253;50.526;14.974;2023-03-23T04:11:14;98440.54;;;7.08;78.45
77235;BME280;66253;50.526;14.974;2023-03-23T04:13:41;98435.61;;;7.08;78.54
77235;BME280;66253;50.526;14.974;2023-03-23T04:16:10;98434.98;;;7.07;78.31
77235;BME280;66253;50.526;14.974;2023-03-23T04:18:35;98439.27;;;7.06;78.47
77235;BME280;66253;50.526;14.974;2023-03-23T04:21:03;98440.02;;;7.04;78.53
77235;BME280;66253;50.526;14.974;2023-03-23T04:23:30;98442.19;;;7.03;78.51
77235;BME280;66253;50.526;14.974;2023-03-23T04:25:59;98439.54;;;7.01;78.36
77235;BME280;66253;50.526;14.974;2023-03-23T04:28:27;98433.86;;;7.00;78.62
77235;BME280;66253;50.526;14.974;2023-03-23T04:30:55;98430.77;;;6.97;78.54
77235;BME280;66253;50.526;14.974;2023-03-23T04:33:25;98433.08;;;6.95;78.82
77235;BME280;66253;50.526;14.974;2023-03-23T04:35:52;98432.02;;;6.93;78.87
77235;BME280;66253;50.526;14.974;2023-03-23T04:38:19;98429.67;;;6.89;78.71
77235;BME280;66253;50.526;14.974;2023-03-23T04:40:48;98427.15;;;6.86;78.62
77235;BME280;66253;50.526;14.974;2023-03-23T04:43:18;98425.78;;;6.82;78.80
77235;BME280;66253;50.526;14.974;2023-03-23T04:45:53;98429.28;;;6.80;78.72
77235;BME280;66253;50.526;14.974;2023-03-23T04:48:24;98425.70;;;6.77;78.99
77235;BME280;66253;50.526;14.974;2023-03-23T04:50:52;98431.60;;;6.75;78.79
77235;BME280;66253;50.526;14.974;2023-03-23T04:53:21;98426.65;;;6.72;79.16
77235;BME280;66253;50.526;14.974;2023-03-23T04:55:47;98427.20;;;6.72;78.87
77235;BME280;66253;50.526;14.974;2023-03-23T04:58:15;98420.98;;;6.71;79.13
77235;BME280;66253;50.526;14.974;2023-03-23T05:00:42;98418.55;;;6.68;79.05
77235;BME280;66253;50.526;14.974;2023-03-23T05:03:17;98419.69;;;6.66;79.20
77235;BME280;66253;50.526;14.974;2023-03-23T05:05:46;98422.50;;;6.65;79.22
77235;BME280;66253;50.526;14.974;2023-03-23T05:08:19;98426.48;;;6.63;79.15
77235;BME280;66253;50.526;14.974;2023-03-23T05:10:53;98428.94;;;6.61;79.41
77235;BME280;66253;50.526;14.974;2023-03-23T05:13:21;98432.58;;;6.60;79.29
77235;BME280;66253;50.526;14.974;2023-03-23T05:19:37;98438.32;;;6.64;79.30
77235;BME280;66253;50.526;14.974;2023-03-23T05:22:06;98450.98;;;6.65;79.40
77235;BME280;66253;50.526;14.974;2023-03-23T05:24:32;98448.17;;;6.66;79.37
77235;BME280;66253;50.526;14.974;2023-03-23T05:26:59;98448.02;;;6.69;79.32
77235;BME280;66253;50.526;14.974;2023-03-23T05:29:25;98449.57;;;6.72;79.26
77235;BME280;66253;50.526;14.974;2023-03-23T05:31:52;98446.73;;;6.74;79.32
77235;BME280;66253;50.526;14.974;2023-03-23T05:34:21;98445.45;;;6.76;79.58
77235;BME280;66253;50.526;14.974;2023-03-23T05:36:46;98437.17;;;6.79;79.22
77235;BME280;66253;50.526;14.974;2023-03-23T05:39:12;98435.86;;;6.81;79.29
77235;BME280;66253;50.526;14.974;2023-03-23T05:41:39;98434.30;;;6.85;79.09
77235;BME280;66253;50.526;14.974;2023-03-23T05:44:04;98425.11;;;6.89;79.12
77235;BME280;66253;50.526;14.974;2023-03-23T05:46:34;98425.14;;;6.91;79.27
77235;BME280;66253;50.526;14.974;2023-03-23T05:49:03;98424.11;;;6.95;79.33
77235;BME280;66253;50.526;14.974;2023-03-23T05:51:34;98432.56;;;6.99;79.13
77235;BME280;66253;50.526;14.974;2023-03-23T05:54:00;98431.84;;;7.02;79.33
77235;BME280;66253;50.526;14.974;2023-03-23T05:56:27;98431.05;;;7.07;79.39
77235;BME280;66253;50.526;14.974;2023-03-23T05:59:01;98427.21;;;7.13;79.25
77235;BME280;66253;50.526;14.974;2023-03-23T06:01:30;98423.14;;;7.19;79.11
77235;BME280;66253;50.526;14.974;2023-03-23T06:04:10;98420.90;;;7.25;79.18
77235;BME280;66253;50.526;14.974;2023-03-23T06:06:39;98414.28;;;7.31;79.15
77235;BME280;66253;50.526;14.974;2023-03-23T06:09:09;98410.04;;;7.38;79.03
77235;BME280;66253;50.526;14.974;2023-03-23T06:11:45;98412.23;;;7.44;79.07
77235;BME280;66253;50.526;14.974;2023-03-23T06:14:11;98407.35;;;7.49;79.07
77235;BME280;66253;50.526;14.974;2023-03-23T06:16:38;98411.75;;;7.56;78.99
77235;BME280;66253;50.526;14.974;2023-03-23T06:19:03;98414.40;;;7.60;78.96
77235;BME280;66253;50.526;14.974;2023-03-23T06:21:33;98420.79;;;7.64;78.88
77235;BME280;66253;50.526;14.974;2023-03-23T06:23:59;98418.95;;;7.69;78.81
77235;BME280;66253;50.526;14.974;2023-03-23T06:26:32;98416.17;;;7.73;78.62
77235;BME280;66253;50.526;14.974;2023-03-23T06:35:27;98431.41;;;7.84;78.16
77235;BME280;66253;50.526;14.974;2023-03-23T06:37:53;98428.05;;;7.86;78.11
77235;BME280;66253;50.526;14.974;2023-03-23T06:40:19;98423.57;;;7.90;78.33
77235;BME280;66253;50.526;14.974;2023-03-23T06:42:46;98424.36;;;7.94;78.43
77235;BME280;66253;50.526;14.974;2023-03-23T06:45:11;98424.17;;;7.97;78.35
77235;BME280;66253;50.526;14.974;2023-03-23T06:47:40;98426.16;;;8.01;78.52
77235;BME280;66253;50.526;14.974;2023-03-23T06:50:06;98424.30;;;8.04;78.35
77235;BME280;66253;50.526;14.974;2023-03-23T06:52:36;98422.90;;;8.07;78.60
77235;BME280;66253;50.526;14.974;2023-03-23T06:55:02;98430.52;;;8.11;78.90
77235;BME280;66253;50.526;14.974;2023-03-23T06:57:28;98434.40;;;8.14;78.98
77235;BME280;66253;50.526;14.974;2023-03-23T07:00:13;98437.08;;;8.18;79.17
77235;BME280;66253;50.526;14.974;2023-03-23T07:02:40;98440.72;;;8.22;79.45
77235;BME280;66253;50.526;14.974;2023-03-23T07:05:07;98442.37;;;8.26;79.38
77235;BME280;66253;50.526;14.974;2023-03-23T07:07:35;98441.27;;;8.31;79.57
77235;BME280;66253;50.526;14.974;2023-03-23T07:10:03;98442.17;;;8.35;79.14
77235;BME280;66253;50.526;14.974;2023-03-23T07:12:29;98446.86;;;8.40;79.28
77235;BME280;66253;50.526;14.974;2023-03-23T07:14:55;98450.13;;;8.45;79.23
77235;BME280;66253;50.526;14.974;2023-03-23T07:17:21;98448.92;;;8.51;78.97
77235;BME280;66253;50.526;14.974;2023-03-23T07:19:50;98447.52;;;8.57;78.90
77235;BME280;66253;50.526;14.974;2023-03-23T07:22:16;98443.55;;;8.64;78.80
77235;BME280;66253;50.526;14.974;2023-03-23T07:24:45;98444.52;;;8.70;79.18
77235;BME280;66253;50.526;14.974;2023-03-23T07:27:11;98439.08;;;8.76;79.37
77235;BME280;66253;50.526;14.974;2023-03-23T07:29:37;98435.98;;;8.82;79.77
77235;BME280;66253;50.526;14.974;2023-03-23T07:32:05;98443.92;;;8.89;79.71
77235;BME280;66253;50.526;14.974;2023-03-23T07:34:31;98446.30;;;8.94;79.36
77235;BME280;66253;50.526;14.974;2023-03-23T07:36:58;98445.80;;;8.99;79.54
77235;BME280;66253;50.526;14.974;2023-03-23T07:39:25;98443.86;;;9.03;79.68
77235;BME280;66253;50.526;14.974;2023-03-23T07:41:51;98442.79;;;9.07;79.37
77235;BME280;66253;50.526;14.974;2023-03-23T07:44:17;98445.73;;;9.11;79.26
77235;BME280;66253;50.526;14.974;2023-03-23T07:46:43;98450.58;;;9.16;79.07
77235;BME280;66253;50.526;14.974;2023-03-23T07:49:09;98449.02;;;9.22;79.23
77235;BME280;66253;50.526;14.974;2023-03-23T07:51:36;98456.61;;;9.29;79.15
77235;BME280;66253;50.526;14.974;2023-03-23T07:54:04;98461.27;;;9.35;79.39
77235;BME280;66253;50.526;14.974;2023-03-23T07:56:34;98463.84;;;9.44;78.79
77235;BME280;66253;50.526;14.974;2023-03-23T07:59:01;98460.34;;;9.53;78.95
77235;BME280;66253;50.526;14.974;2023-03-23T08:01:28;98456.17;;;9.62;78.30
77235;BME280;66253;50.526;14.974;2023-03-23T08:03:54;98452.97;;;9.73;78.11
77235;BME280;66253;50.526;14.974;2023-03-23T08:06:26;98455.44;;;9.84;77.85
77235;BME280;66253;50.526;14.974;2023-03-23T08:08:52;98454.65;;;9.97;77.98
77235;BME280;66253;50.526;14.974;2023-03-23T08:11:19;98446.38;;;10.08;77.77
77235;BME280;66253;50.526;14.974;2023-03-23T08:13:46;98446.59;;;10.20;77.82
77235;BME280;66253;50.526;14.974;2023-03-23T08:16:12;98448.48;;;10.33;77.08
77235;BME280;66253;50.526;14.974;2023-03-23T08:18:39;98450.98;;;10.47;76.77
77235;BME280;66253;50.526;14.974;2023-03-23T08:21:06;98447.34;;;10.63;76.52
77235;BME280;66253;50.526;14.974;2023-03-23T08:23:35;98445.35;;;10.79;76.39
77235;BME280;66253;50.526;14.974;2023-03-23T08:26:06;98441.41;;;10.97;75.67
77235;BME280;66253;50.526;14.974;2023-03-23T08:28:37;98444.83;;;11.16;75.30
77235;BME280;66253;50.526;14.974;2023-03-23T08:31:10;98442.28;;;11.37;75.15
77235;BME280;66253;50.526;14.974;2023-03-23T08:33:37;98448.33;;;11.56;74.20
77235;BME280;66253;50.526;14.974;2023-03-23T08:36:03;98451.95;;;11.71;74.04
77235;BME280;66253;50.526;14.974;2023-03-23T08:38:32;98452.74;;;11.87;73.53
77235;BME280;66253;50.526;14.974;2023-03-23T08:41:02;98449.08;;;11.99;73.14
77235;BME280;66253;50.526;14.974;2023-03-23T08:43:29;98442.70;;;12.12;72.08
77235;BME280;66253;50.526;14.974;2023-03-23T08:45:55;98440.94;;;12.24;71.69
77235;BME280;66253;50.526;14.974;2023-03-23T08:48:21;98441.66;;;12.35;71.25
77235;BME280;66253;50.526;14.974;2023-03-23T08:50:49;98439.33;;;12.48;71.22
77235;BME280;66253;50.526;14.974;2023-03-23T08:53:15;98441.86;;;12.61;70.86
77235;BME280;66253;50.526;14.974;2023-03-23T08:55:41;98436.15;;;12.75;70.14
77235;BME280;66253;50.526;14.974;2023-03-23T08:58:08;98438.62;;;12.90;69.21
77235;BME280;66253;50.526;14.974;2023-03-23T09:00:34;98434.17;;;13.03;68.81
77235;BME280;66253;50.526;14.974;2023-03-23T09:03:00;98433.98;;;13.16;68.19
77235;BME280;66253;50.526;14.974;2023-03-23T09:05:27;98432.27;;;13.30;67.61
77235;BME280;66253;50.526;14.974;2023-03-23T09:07:56;98424.16;;;13.43;67.46
77235;BME280;66253;50.526;14.974;2023-03-23T09:10:25;98425.68;;;13.54;67.47
77235;BME280;66253;50.526;14.974;2023-03-23T09:12:53;98424.68;;;13.65;66.95
77235;BME280;66253;50.526;14.974;2023-03-23T09:15:19;98418.09;;;13.76;66.32
77235;BME280;66253;50.526;14.974;2023-03-23T09:17:47;98419.66;;;13.88;66.12
77235;BME280;66253;50.526;14.974;2023-03-23T09:20:16;98410.57;;;13.98;65.16
77235;BME280;66253;50.526;14.974;2023-03-23T09:22:46;98411.79;;;14.10;64.93
77235;BME280;66253;50.526;14.974;2023-03-23T09:25:14;98412.31;;;14.22;64.98
77235;BME280;66253;50.526;14.974;2023-03-23T09:27:42;98414.98;;;14.34;64.26
77235;BME280;66253;50.526;14.974;2023-03-23T09:30:12;98413.20;;;14.43;63.49
77235;BME280;66253;50.526;14.974;2023-03-23T09:32:40;98408.21;;;14.49;63.43
77235;BME280;66253;50.526;14.974;2023-03-23T09:35:09;98408.86;;;14.53;62.96
77235;BME280;66253;50.526;14.974;2023-03-23T09:37:38;98406.46;;;14.60;63.32
77235;BME280;66253;50.526;14.974;2023-03-23T09:40:09;98410.08;;;14.66;62.72
77235;BME280;66253;50.526;14.974;2023-03-23T09:42:48;98408.89;;;14.71;62.44
77235;BME280;66253;50.526;14.974;2023-03-23T09:50:35;98407.56;;;14.99;61.94
77235;BME280;66253;50.526;14.974;2023-03-23T09:53:26;98408.30;;;15.10;61.75
77235;BME280;66253;50.526;14.974;2023-03-23T09:55:54;98405.27;;;15.21;60.91
77235;BME280;66253;50.526;14.974;2023-03-23T10:03:47;98404.98;;;15.49;60.45
77235;BME280;66253;50.526;14.974;2023-03-23T10:06:15;98405.13;;;15.58;60.41
77235;BME280;66253;50.526;14.974;2023-03-23T10:08:51;98409.21;;;15.66;60.35
77235;BME280;66253;50.526;14.974;2023-03-23T10:17:02;98410.48;;;15.77;59.38
77235;BME280;66253;50.526;14.974;2023-03-23T10:19:34;98413.11;;;15.80;59.11
77235;BME280;66253;50.526;14.974;2023-03-23T10:22:09;98410.52;;;15.82;58.57
77235;BME280;66253;50.526;14.974;2023-03-23T10:27:37;98411.42;;;15.84;58.71
77235;BME280;66253;50.526;14.974;2023-03-23T10:35:38;98408.83;;;15.86;58.25
77235;BME280;66253;50.526;14.974;2023-03-23T10:38:12;98401.81;;;15.89;58.25
77235;BME280;66253;50.526;14.974;2023-03-23T10:40:52;98398.60;;;15.92;58.46
77235;BME280;66253;50.526;14.974;2023-03-23T10:43:19;98390.68;;;15.96;58.31
77235;BME280;66253;50.526;14.974;2023-03-23T10:45:55;98390.91;;;15.99;58.23
77235;BME280;66253;50.526;14.974;2023-03-23T10:48:30;98390.46;;;16.04;58.20
77235;BME280;66253;50.526;14.974;2023-03-23T10:51:00;98385.98;;;16.10;58.17
77235;BME280;66253;50.526;14.974;2023-03-23T10:53:51;98386.18;;;16.15;57.90
77235;BME280;66253;50.526;14.974;2023-03-23T10:58:51;98382.98;;;16.27;56.84
77235;BME280;66253;50.526;14.974;2023-03-23T11:01:30;98381.29;;;16.31;56.45
77235;BME280;66253;50.526;14.974;2023-03-23T11:03:57;98385.44;;;16.38;56.39
77235;BME280;66253;50.526;14.974;2023-03-23T11:06:31;98382.95;;;16.46;56.43
77235;BME280;66253;50.526;14.974;2023-03-23T11:09:11;98381.82;;;16.54;55.87
77235;BME280;66253;50.526;14.974;2023-03-23T11:11:40;98380.04;;;16.62;55.80
77235;BME280;66253;50.526;14.974;2023-03-23T11:14:17;98378.31;;;16.70;55.36
77235;BME280;66253;50.526;14.974;2023-03-23T11:16:56;98382.32;;;16.79;55.28
77235;BME280;66253;50.526;14.974;2023-03-23T11:19:30;98389.08;;;16.87;55.22
77235;BME280;66253;50.526;14.974;2023-03-23T11:24:32;98386.19;;;17.01;54.55
77235;BME280;66253;50.526;14.974;2023-03-23T11:26:59;98384.29;;;17.07;54.05
77235;BME280;66253;50.526;14.974;2023-03-23T11:29:27;98384.45;;;17.10;53.03
77235;BME280;66253;50.526;14.974;2023-03-23T11:37:00;98383.93;;;17.28;52.43
77235;BME280;66253;50.526;14.974;2023-03-23T11:39:33;98380.77;;;17.33;52.30
77235;BME280;66253;50.526;14.974;2023-03-23T11:42:01;98378.28;;;17.37;51.86
77235;BME280;66253;50.526;14.974;2023-03-23T11:44:40;98378.27;;;17.37;51.91
77235;BME280;66253;50.526;14.974;2023-03-23T11:47:27;98377.46;;;17.33;51.37
77235;BME280;66253;50.526;14.974;2023-03-23T11:50:10;98382.84;;;17.25;51.66
77235;BME280;66253;50.526;14.974;2023-03-23T11:52:48;98389.40;;;17.17;51.51
77235;BME280;66253;50.526;14.974;2023-03-23T11:55:25;98392.92;;;17.07;51.69
77235;BME280;66253;50.526;14.974;2023-03-23T11:57:53;98391.45;;;16.95;51.46
77235;BME280;66253;50.526;14.974;2023-03-23T12:00:22;98391.53;;;16.87;51.69
77235;BME280;66253;50.526;14.974;2023-03-23T12:14:48;98385.07;;;16.53;53.16
77235;BME280;66253;50.526;14.974;2023-03-23T12:23:03;98396.15;;;16.28;53.56
77235;BME280;66253;50.526;14.974;2023-03-23T12:26:07;98400.42;;;16.21;54.34
77235;BME280;66253;50.526;14.974;2023-03-23T12:29:01;98400.34;;;16.14;54.69
77235;BME280;66253;50.526;14.974;2023-03-23T12:31:43;98404.19;;;16.10;54.97
77235;BME280;66253;50.526;14.974;2023-03-23T12:34:36;98401.03;;;16.07;55.51
77235;BME280;66253;50.526;14.974;2023-03-23T12:40:06;98404.87;;;16.07;56.37
77235;BME280;66253;50.526;14.974;2023-03-23T12:42:43;98409.38;;;16.08;56.69
77235;BME280;66253;50.526;14.974;2023-03-23T12:45:19;98409.36;;;16.10;57.09
77235;BME280;66253;50.526;14.974;2023-03-23T12:48:11;98410.10;;;16.11;57.46
77235;BME280;66253;50.526;14.974;2023-03-23T12:50:42;98406.92;;;16.09;57.68
77235;BME280;66253;50.526;14.974;2023-03-23T12:53:23;98409.17;;;16.05;57.55
77235;BME280;66253;50.526;14.974;2023-03-23T12:59:05;98406.27;;;15.95;57.53
77235;BME280;66253;50.526;14.974;2023-03-23T13:01:45;98408.61;;;15.90;57.75
77235;BME280;66253;50.526;14.974;2023-03-23T13:04:15;98407.44;;;15.86;57.84
77235;BME280;66253;50.526;14.974;2023-03-23T13:06:44;98406.42;;;15.82;58.21
77235;BME280;66253;50.526;14.974;2023-03-23T13:09:26;98408.52;;;15.80;58.75
77235;BME280;66253;50.526;14.974;2023-03-23T13:11:59;98403.87;;;15.78;59.32
77235;BME280;66253;50.526;14.974;2023-03-23T13:22:55;98402.43;;;15.74;60.28
77235;BME280;66253;50.526;14.974;2023-03-23T13:25:40;98402.47;;;15.72;60.46
77235;BME280;66253;50.526;14.974;2023-03-23T13:28:16;98398.41;;;15.67;60.13
77235;BME280;66253;50.526;14.974;2023-03-23T13:30:53;98393.06;;;15.65;60.22
77235;BME280;66253;50.526;14.974;2023-03-23T13:33:21;98390.70;;;15.65;60.58
77235;BME280;66253;50.526;14.974;2023-03-23T13:35:48;98388.44;;;15.63;60.58
77235;BME280;66253;50.526;14.974;2023-03-23T13:38:25;98383.99;;;15.63;60.75
77235;BME280;66253;50.526;14.974;2023-03-23T13:40:52;98381.60;;;15.65;60.65
77235;BME280;66253;50.526;14.974;2023-03-23T13:43:29;98385.31;;;15.65;61.02
77235;BME280;66253;50.526;14.974;2023-03-23T13:48:41;98386.33;;;15.66;60.83
77235;BME280;66253;50.526;14.974;2023-03-23T13:54:15;98388.93;;;15.65;60.72
77235;BME280;66253;50.526;14.974;2023-03-23T13:56:53;98386.48;;;15.66;61.10
77235;BME280;66253;50.526;14.974;2023-03-23T14:01:52;98384.86;;;15.67;61.52
77235;BME280;66253;50.526;14.974;2023-03-23T14:04:20;98386.23;;;15.67;61.64
77235;BME280;66253;50.526;14.974;2023-03-23T14:06:49;98395.73;;;15.68;62.19
77235;BME280;66253;50.526;14.974;2023-03-23T14:09:30;98401.75;;;15.69;61.09
77235;BME280;66253;50.526;14.974;2023-03-23T14:12:00;98409.98;;;15.69;60.84
77235;BME280;66253;50.526;14.974;2023-03-23T14:14:34;98411.61;;;15.70;61.16
77235;BME280;66253;50.526;14.974;2023-03-23T14:17:10;98414.27;;;15.71;61.44
77235;BME280;66253;50.526;14.974;2023-03-23T14:19:39;98414.34;;;15.72;61.53
77235;BME280;66253;50.526;14.974;2023-03-23T14:22:22;98415.89;;;15.72;62.03
77235;BME280;66253;50.526;14.974;2023-03-23T14:24:48;98406.43;;;15.72;62.29
77235;BME280;66253;50.526;14.974;2023-03-23T14:27:17;98397.77;;;15.73;62.42
77235;BME280;66253;50.526;14.974;2023-03-23T14:29:43;98403.48;;;15.72;62.04
77235;BME280;66253;50.526;14.974;2023-03-23T14:32:17;98403.15;;;15.72;61.84
77235;BME280;66253;50.526;14.974;2023-03-23T14:34:47;98399.39;;;15.74;62.13
77235;BME280;66253;50.526;14.974;2023-03-23T14:37:14;98391.99;;;15.76;61.89
77235;BME280;66253;50.526;14.974;2023-03-23T14:39:44;98388.23;;;15.79;62.19
77235;BME280;66253;50.526;14.974;2023-03-23T14:42:13;98383.07;;;15.83;62.37
77235;BME280;66253;50.526;14.974;2023-03-23T14:44:45;98383.60;;;15.87;62.10
77235;BME280;66253;50.526;14.974;2023-03-23T14:47:25;98380.55;;;15.90;61.51
77235;BME280;66253;50.526;14.974;2023-03-23T14:49:56;98378.04;;;15.93;61.44
77235;BME280;66253;50.526;14.974;2023-03-23T14:52:25;98370.36;;;15.96;61.59
77235;BME280;66253;50.526;14.974;2023-03-23T14:54:51;98370.45;;;15.98;61.53
77235;BME280;66253;50.526;14.974;2023-03-23T14:57:25;98367.30;;;16.01;61.28
77235;BME280;66253;50.526;14.974;2023-03-23T14:59:51;98362.43;;;16.04;61.25
77235;BME280;66253;50.526;14.974;2023-03-23T15:02:23;98364.89;;;16.05;61.42
77235;BME280;66253;50.526;14.974;2023-03-23T15:04:56;98361.25;;;16.07;61.33